createdAt,value
2022-08-04T00:00:06.789Z,20.40
2022-08-04T00:02:53.873Z,20.30
2022-08-04T00:05:37.180Z,20.30
2022-08-04T00:08:24.096Z,20.20
2022-08-04T00:11:00.718Z,20.30
2022-08-04T00:14:02.346Z,20.30
2022-08-04T00:16:39.579Z,20.30
2022-08-04T00:19:18.649Z,20.30
2022-08-04T00:21:57.998Z,20.30
2022-08-04T00:24:32.706Z,20.30
2022-08-04T00:27:07.706Z,20.20
2022-08-04T00:29:41.187Z,20.20
2022-08-04T00:32:33.894Z,20.20
2022-08-04T00:35:11.047Z,20.10
2022-08-04T00:37:46.730Z,20.10
2022-08-04T00:40:29.468Z,20.00
2022-08-04T00:43:14.603Z,19.90
2022-08-04T00:46:28.670Z,19.90
2022-08-04T00:49:33.872Z,19.90
2022-08-04T00:52:31.715Z,19.90
2022-08-04T00:55:29.268Z,19.90
2022-08-04T00:58:30.818Z,19.70
2022-08-04T01:01:07.740Z,19.70
2022-08-04T01:03:56.067Z,19.80
2022-08-04T01:06:50.964Z,19.70
2022-08-04T01:09:46.149Z,19.70
2022-08-04T01:12:45.404Z,19.60
2022-08-04T01:15:27.131Z,19.60
2022-08-04T01:18:06.487Z,19.50
2022-08-04T01:20:48.984Z,19.50
2022-08-04T01:24:13.240Z,19.50
2022-08-04T01:26:58.371Z,19.50
2022-08-04T01:29:46.681Z,19.40
2022-08-04T01:32:32.204Z,19.40
2022-08-04T01:35:15.503Z,19.30
2022-08-04T01:38:03.080Z,19.30
2022-08-04T01:40:56.044Z,19.30
2022-08-04T01:43:31.084Z,19.40
2022-08-04T01:46:07.038Z,19.30
2022-08-04T01:48:42.035Z,19.30
2022-08-04T01:51:15.514Z,19.30
2022-08-04T01:53:48.607Z,19.30
2022-08-04T01:56:23.754Z,19.30
2022-08-04T01:58:59.241Z,19.30
2022-08-04T02:01:37.946Z,19.20
2022-08-04T02:04:21.602Z,19.20
2022-08-04T02:07:11.424Z,19.20
2022-08-04T02:10:03.036Z,19.20
2022-08-04T02:12:54.520Z,19.20
2022-08-04T02:15:39.014Z,19.30
2022-08-04T02:18:23.180Z,19.20
2022-08-04T02:21:00.510Z,19.10
2022-08-04T02:23:37.958Z,19.10
2022-08-04T02:26:22.263Z,19.00
2022-08-04T02:29:05.333Z,18.90
2022-08-04T02:31:45.422Z,18.80
2022-08-04T02:34:27.180Z,18.80
2022-08-04T02:37:01.773Z,18.70
2022-08-04T02:39:48.268Z,18.70
2022-08-04T02:42:23.205Z,18.80
2022-08-04T02:45:00.468Z,18.80
2022-08-04T02:48:23.666Z,18.80
2022-08-04T02:50:31.011Z,18.80
2022-08-04T02:53:09.974Z,18.80
2022-08-04T02:55:50.402Z,18.80
2022-08-04T02:58:29.076Z,18.80
2022-08-04T03:01:02.480Z,18.80
2022-08-04T03:03:41.867Z,18.90
2022-08-04T03:07:33.543Z,18.90
2022-08-04T03:10:54.836Z,19.00
2022-08-04T03:14:10.618Z,18.90
2022-08-04T03:20:46.543Z,18.80
2022-08-04T03:24:06.367Z,18.70
2022-08-04T03:27:01.853Z,18.60
2022-08-04T03:30:08.763Z,18.40
2022-08-04T03:33:10.307Z,18.40
2022-08-04T03:36:14.279Z,18.40
2022-08-04T03:39:18.615Z,18.30
2022-08-04T03:42:40.722Z,18.20
2022-08-04T03:45:46.679Z,18.20
2022-08-04T03:48:59.544Z,18.10
2022-08-04T03:52:01.572Z,18.10
2022-08-04T03:55:26.855Z,18.10
2022-08-04T03:58:46.261Z,18.10
2022-08-04T04:02:01.925Z,18.10
2022-08-04T04:05:09.170Z,18.10
2022-08-04T04:08:19.098Z,18.10
2022-08-04T04:11:57.403Z,18.00
2022-08-04T04:14:50.728Z,17.90
2022-08-04T04:17:50.854Z,17.90
2022-08-04T04:20:55.431Z,17.90
2022-08-04T04:24:03.857Z,17.80
2022-08-04T04:26:57.433Z,17.70
2022-08-04T04:29:54.715Z,17.80
2022-08-04T04:32:42.748Z,17.80
2022-08-04T04:35:35.741Z,17.90
2022-08-04T04:38:43.361Z,17.90
2022-08-04T04:41:38.043Z,17.90
2022-08-04T04:44:48.419Z,17.90
2022-08-04T04:47:43.363Z,17.90
2022-08-04T04:50:38.209Z,18.00
2022-08-04T04:53:24.519Z,18.00
2022-08-04T04:56:07.462Z,18.10
2022-08-04T04:58:42.098Z,18.20
2022-08-04T05:01:51.622Z,18.20
2022-08-04T05:05:16.287Z,18.30
2022-08-04T05:08:43.820Z,18.40
2022-08-04T05:11:56.855Z,18.60
2022-08-04T05:14:41.605Z,18.70
2022-08-04T05:17:25.237Z,18.90
2022-08-04T05:20:06.489Z,19.00
2022-08-04T05:22:47.515Z,19.20
2022-08-04T05:25:26.903Z,19.40
2022-08-04T05:28:07.346Z,20.10
2022-08-04T05:30:48.644Z,21.00
2022-08-04T05:33:30.530Z,21.70
2022-08-04T05:36:20.461Z,22.30
2022-08-04T05:39:03.293Z,22.90
2022-08-04T05:41:45.731Z,23.50
2022-08-04T05:44:24.004Z,23.80
2022-08-04T05:46:59.610Z,24.30
2022-08-04T05:49:35.601Z,24.60
2022-08-04T05:52:11.622Z,24.90
2022-08-04T05:54:45.945Z,25.10
2022-08-04T05:57:20.894Z,25.20
2022-08-04T05:59:56.800Z,25.50
2022-08-04T06:02:31.603Z,25.60
2022-08-04T06:05:08.414Z,25.90
2022-08-04T06:08:12.542Z,26.00
2022-08-04T06:10:39.272Z,25.90
2022-08-04T06:13:47.463Z,26.30
2022-08-04T06:16:28.580Z,26.40
2022-08-04T06:19:59.527Z,26.40
2022-08-04T06:22:05.683Z,27.00
2022-08-04T06:24:42.526Z,27.20
2022-08-04T06:27:16.913Z,27.20
2022-08-04T06:29:51.950Z,27.40
2022-08-04T06:32:34.708Z,27.60
2022-08-04T06:35:12.255Z,27.80
2022-08-04T06:37:49.178Z,28.20
2022-08-04T06:40:31.258Z,28.20
2022-08-04T06:43:08.811Z,28.20
2022-08-04T06:45:43.979Z,28.40
2022-08-04T06:48:19.464Z,28.60
2022-08-04T06:51:26.385Z,29.10
2022-08-04T06:53:49.046Z,29.10
2022-08-04T06:56:24.134Z,29.90
2022-08-04T06:58:59.184Z,30.40
2022-08-04T07:01:33.888Z,30.60
2022-08-04T07:04:07.511Z,31.10
2022-08-04T07:06:40.977Z,31.30
2022-08-04T07:09:15.884Z,31.20
2022-08-04T07:11:51.189Z,31.00
2022-08-04T07:14:27.097Z,31.00
2022-08-04T07:17:01.166Z,31.70
2022-08-04T07:19:34.924Z,32.10
2022-08-04T07:22:24.346Z,33.00
2022-08-04T07:25:01.338Z,33.20
2022-08-04T07:27:48.421Z,33.10
2022-08-04T07:30:24.874Z,32.90
2022-08-04T07:32:58.603Z,33.40
2022-08-04T07:36:10.029Z,33.70
2022-08-04T07:38:27.312Z,33.50
2022-08-04T07:41:03.911Z,33.80
2022-08-04T07:43:38.988Z,34.10
2022-08-04T07:46:12.664Z,34.50
2022-08-04T07:48:46.479Z,34.70
2022-08-04T07:51:20.068Z,34.70
2022-08-04T07:53:56.178Z,34.40
2022-08-04T07:56:32.387Z,34.50
2022-08-04T07:59:06.703Z,34.90
2022-08-04T08:01:41.424Z,34.90
2022-08-04T08:04:16.004Z,35.50
2022-08-04T08:06:49.376Z,35.60
2022-08-04T08:09:22.846Z,35.70
2022-08-04T08:12:36.284Z,35.80
2022-08-04T08:14:51.230Z,35.90
2022-08-04T08:17:25.709Z,36.10
2022-08-04T08:19:58.948Z,36.10
2022-08-04T08:22:33.198Z,35.80
2022-08-04T08:25:07.598Z,35.90
2022-08-04T08:27:43.862Z,35.80
2022-08-04T08:30:31.485Z,36.20
2022-08-04T08:33:10.523Z,36.00
2022-08-04T08:35:54.904Z,35.70
2022-08-04T08:38:44.942Z,35.80
2022-08-04T08:41:53.192Z,35.80
2022-08-04T08:45:17.823Z,36.20
2022-08-04T08:48:34.951Z,36.70
2022-08-04T08:51:34.318Z,36.60
2022-08-04T08:54:34.946Z,36.50
2022-08-04T08:57:59.413Z,36.70
2022-08-04T09:00:48.979Z,36.50
2022-08-04T09:04:31.615Z,37.00
2022-08-04T09:07:27.794Z,37.00
2022-08-04T09:10:12.997Z,37.00
2022-08-04T09:12:59.102Z,37.10
2022-08-04T09:15:41.275Z,36.80
2022-08-04T09:18:23.467Z,37.00
2022-08-04T09:21:08.013Z,37.20
2022-08-04T09:23:50.721Z,37.00
2022-08-04T09:26:35.865Z,36.90
2022-08-04T09:29:15.729Z,36.80
2022-08-04T09:32:07.339Z,36.70
2022-08-04T09:35:07.588Z,37.00
2022-08-04T09:37:51.331Z,37.20
2022-08-04T09:40:35.657Z,37.10
2022-08-04T09:43:59.423Z,37.20
2022-08-04T09:46:36.245Z,37.50
2022-08-04T09:49:17.520Z,37.40
2022-08-04T09:52:12.997Z,37.40
2022-08-04T09:55:03.870Z,37.20
2022-08-04T09:57:53.450Z,36.80
2022-08-04T10:00:40.706Z,37.10
2022-08-04T10:03:20.232Z,37.10
2022-08-04T10:06:21.165Z,37.30
2022-08-04T10:09:07.239Z,37.20
2022-08-04T10:12:10.308Z,37.10
2022-08-04T10:14:54.015Z,37.00
2022-08-04T10:18:05.482Z,36.60
2022-08-04T10:20:59.975Z,36.70
2022-08-04T10:23:55.111Z,36.70
2022-08-04T10:26:38.242Z,36.90
2022-08-04T10:29:19.046Z,37.20
2022-08-04T10:32:02.092Z,36.90
2022-08-04T10:34:44.548Z,36.90
2022-08-04T10:38:00.335Z,36.90
2022-08-04T10:40:43.142Z,36.80
2022-08-04T10:43:29.239Z,36.70
2022-08-04T10:46:09.509Z,36.80
2022-08-04T10:48:48.896Z,36.80
2022-08-04T10:51:30.371Z,37.00
2022-08-04T10:54:30.960Z,37.10
2022-08-04T10:57:12.106Z,36.70
2022-08-04T11:00:00.603Z,36.50
2022-08-04T11:02:46.497Z,36.80
2022-08-04T11:05:30.567Z,37.00
2022-08-04T11:08:14.365Z,37.00
2022-08-04T11:10:58.667Z,36.80
2022-08-04T11:13:48.591Z,36.70
2022-08-04T11:16:28.171Z,36.50
2022-08-04T11:19:15.309Z,36.50
2022-08-04T11:21:56.683Z,36.40
2022-08-04T11:24:38.475Z,36.30
2022-08-04T11:27:17.550Z,36.30
2022-08-04T11:30:02.864Z,36.30
2022-08-04T11:32:45.229Z,36.20
2022-08-04T11:35:29.104Z,36.50
2022-08-04T11:38:12.855Z,36.30
2022-08-04T11:41:02.130Z,36.40
2022-08-04T11:44:02.766Z,36.40
2022-08-04T11:46:43.658Z,36.40
2022-08-04T11:49:27.721Z,36.30
2022-08-04T11:52:05.118Z,36.20
2022-08-04T11:54:39.432Z,36.30
2022-08-04T11:57:12.756Z,36.40
2022-08-04T11:59:49.172Z,36.30
2022-08-04T12:02:49.955Z,36.20
2022-08-04T12:05:36.919Z,36.20
2022-08-04T12:08:34.576Z,36.20
2022-08-04T12:11:25.245Z,36.10
2022-08-04T12:14:14.744Z,35.90
2022-08-04T12:16:59.054Z,36.10
2022-08-04T12:19:57.058Z,35.80
2022-08-04T12:22:38.742Z,35.80
2022-08-04T12:25:22.922Z,35.90
2022-08-04T12:28:02.169Z,36.00
2022-08-04T12:30:59.579Z,36.20
2022-08-04T12:34:04.615Z,36.00
2022-08-04T12:36:43.800Z,35.80
2022-08-04T12:39:20.424Z,35.70
2022-08-04T12:42:04.954Z,35.70
2022-08-04T12:44:41.878Z,35.50
2022-08-04T12:47:27.402Z,35.60
2022-08-04T12:50:05.392Z,35.80
2022-08-04T12:53:31.898Z,36.00
2022-08-04T12:56:08.146Z,36.20
2022-08-04T12:58:46.631Z,36.10
2022-08-04T13:02:08.770Z,36.10
2022-08-04T13:04:21.625Z,35.90
2022-08-04T13:07:02.330Z,35.90
2022-08-04T13:09:38.591Z,35.90
2022-08-04T13:12:16.230Z,36.10
2022-08-04T13:14:54.366Z,36.20
2022-08-04T13:17:49.631Z,36.20
2022-08-04T13:20:27.797Z,36.00
2022-08-04T13:23:14.389Z,36.10
2022-08-04T13:26:44.847Z,36.20
2022-08-04T13:28:47.315Z,36.20
2022-08-04T13:31:24.453Z,36.00
2022-08-04T13:34:08.475Z,35.90
2022-08-04T13:36:56.701Z,35.90
2022-08-04T13:39:32.205Z,35.90
2022-08-04T13:42:11.948Z,35.90
2022-08-04T13:44:49.909Z,35.80
2022-08-04T13:47:29.863Z,35.80
2022-08-04T13:50:27.428Z,35.80
2022-08-04T13:53:04.388Z,35.80
2022-08-04T13:55:38.377Z,35.80
2022-08-04T13:58:20.354Z,35.90
2022-08-04T14:01:01.172Z,35.90
2022-08-04T14:03:54.514Z,36.00
2022-08-04T14:06:31.706Z,35.90
2022-08-04T14:09:15.376Z,35.90
2022-08-04T14:12:09.987Z,35.80
2022-08-04T14:14:48.734Z,36.10
2022-08-04T14:17:30.211Z,36.00
2022-08-04T14:20:06.821Z,35.80
2022-08-04T14:22:40.043Z,35.80
2022-08-04T14:25:16.789Z,36.00
2022-08-04T14:27:54.293Z,35.90
2022-08-04T14:30:30.898Z,36.00
2022-08-04T14:34:01.550Z,36.00
2022-08-04T14:36:04.582Z,35.90
2022-08-04T14:38:51.754Z,35.90
2022-08-04T14:41:29.519Z,35.90
2022-08-04T14:44:07.313Z,35.90
2022-08-04T14:46:52.462Z,36.10
2022-08-04T14:49:26.672Z,36.20
2022-08-04T14:52:03.096Z,36.10
2022-08-04T14:54:36.783Z,35.90
2022-08-04T14:57:10.187Z,35.70
2022-08-04T14:59:59.756Z,35.50
2022-08-04T15:02:36.117Z,35.30
2022-08-04T15:06:01.911Z,35.20
2022-08-04T15:08:04.682Z,35.30
2022-08-04T15:10:39.225Z,35.40
2022-08-04T15:13:14.376Z,35.40
2022-08-04T15:16:06.459Z,35.30
2022-08-04T15:18:40.558Z,35.30
2022-08-04T15:21:15.552Z,35.30
2022-08-04T15:23:50.639Z,35.20
2022-08-04T15:26:30.158Z,35.10
2022-08-04T15:29:16.240Z,35.20
2022-08-04T15:32:05.740Z,35.10
2022-08-04T15:34:49.278Z,35.10
2022-08-04T15:37:29.935Z,35.00
2022-08-04T15:40:14.007Z,35.10
2022-08-04T15:42:50.614Z,35.10
2022-08-04T15:46:02.225Z,34.90
2022-08-04T15:48:28.908Z,34.90
2022-08-04T15:51:14.655Z,35.00
2022-08-04T15:54:28.123Z,35.10
2022-08-04T15:57:07.913Z,35.20
2022-08-04T16:00:01.664Z,35.30
2022-08-04T16:02:44.211Z,35.20
2022-08-04T16:05:39.174Z,35.10
2022-08-04T16:08:17.512Z,35.00
2022-08-04T16:10:51.818Z,34.90
2022-08-04T16:13:26.236Z,34.70
2022-08-04T16:16:03.653Z,34.80
2022-08-04T16:18:43.796Z,34.70
2022-08-04T16:21:24.653Z,34.70
2022-08-04T16:24:19.111Z,34.60
2022-08-04T16:26:56.158Z,34.60
2022-08-04T16:29:35.162Z,34.50
2022-08-04T16:32:17.315Z,34.50
2022-08-04T16:34:59.659Z,34.40
2022-08-04T16:37:35.573Z,34.30
2022-08-04T16:40:36.447Z,34.30
2022-08-04T16:43:13.632Z,34.20
2022-08-04T16:45:52.691Z,34.20
2022-08-04T16:48:28.293Z,34.20
2022-08-04T16:51:06.424Z,34.20
2022-08-04T16:54:02.763Z,34.20
2022-08-04T16:56:36.395Z,34.10
2022-08-04T16:59:10.747Z,34.00
2022-08-04T17:01:52.092Z,33.90
2022-08-04T17:04:30.839Z,33.80
2022-08-04T17:07:06.669Z,33.70
2022-08-04T17:09:51.064Z,33.70
2022-08-04T17:12:29.941Z,33.60
2022-08-04T17:15:03.280Z,33.60
2022-08-04T17:18:05.789Z,33.50
2022-08-04T17:21:01.459Z,33.50
2022-08-04T17:24:15.488Z,33.40
2022-08-04T17:26:40.036Z,33.30
2022-08-04T17:29:18.209Z,33.10
2022-08-04T17:31:53.796Z,33.00
2022-08-04T17:34:28.518Z,33.00
2022-08-04T17:37:38.070Z,32.90
2022-08-04T17:40:09.992Z,32.80
2022-08-04T17:42:45.261Z,32.70
2022-08-04T17:48:24.527Z,32.40
2022-08-04T17:51:17.171Z,32.30
2022-08-04T17:54:02.716Z,32.30
2022-08-04T17:56:51.393Z,32.20
2022-08-04T17:59:52.911Z,32.10
2022-08-04T18:02:32.447Z,32.00
2022-08-04T18:05:11.684Z,31.90
2022-08-04T18:08:38.951Z,31.90
2022-08-04T18:10:52.139Z,31.70
2022-08-04T18:13:29.656Z,31.60
2022-08-04T18:16:05.530Z,31.40
2022-08-04T18:18:38.658Z,31.30
2022-08-04T18:21:11.791Z,31.20
2022-08-04T18:23:50.949Z,31.10
2022-08-04T18:26:24.369Z,30.90
2022-08-04T18:28:57.532Z,30.80
2022-08-04T18:31:35.826Z,30.60
2022-08-04T18:34:14.290Z,30.50
2022-08-04T18:36:59.232Z,30.40
2022-08-04T18:40:09.588Z,30.30
2022-08-04T18:42:27.939Z,30.20
2022-08-04T18:45:12.903Z,30.00
2022-08-04T18:47:54.377Z,29.90
2022-08-04T18:51:09.296Z,29.80
2022-08-04T18:53:26.137Z,29.70
2022-08-04T18:56:20.055Z,29.60
2022-08-04T18:59:10.588Z,29.50
2022-08-04T19:02:13.400Z,29.50
2022-08-04T19:04:37.214Z,29.40
2022-08-04T19:08:01.458Z,29.30
2022-08-04T19:10:07.626Z,29.20
2022-08-04T19:13:00.868Z,29.10
2022-08-04T19:15:34.952Z,28.90
2022-08-04T19:18:10.490Z,28.80
2022-08-04T19:20:43.719Z,28.60
2022-08-04T19:24:32.128Z,28.50
2022-08-04T19:26:27.929Z,28.40
2022-08-04T19:29:03.666Z,28.30
2022-08-04T19:31:41.981Z,28.20
2022-08-04T19:34:15.208Z,28.10
2022-08-04T19:36:48.348Z,28.00
2022-08-04T19:39:22.653Z,28.00
2022-08-04T19:42:04.606Z,27.90
2022-08-04T19:48:16.418Z,27.70
2022-08-04T19:50:28.568Z,27.60
2022-08-04T19:53:01.800Z,27.50
2022-08-04T19:55:38.380Z,27.50
2022-08-04T19:58:11.811Z,27.40
2022-08-04T20:00:51.471Z,27.30
2022-08-04T20:04:09.175Z,27.20
2022-08-04T20:06:18.345Z,27.10
2022-08-04T20:08:52.405Z,27.00
2022-08-04T20:11:27.340Z,26.90
2022-08-04T20:14:00.498Z,26.80
2022-08-04T20:16:36.894Z,26.70
2022-08-04T20:19:13.810Z,26.70
2022-08-04T20:21:55.219Z,26.60
2022-08-04T20:24:39.384Z,26.50
2022-08-04T20:27:17.708Z,26.40
2022-08-04T20:29:55.653Z,26.40
2022-08-04T20:32:30.282Z,26.30
2022-08-04T20:35:03.494Z,26.30
2022-08-04T20:37:55.094Z,26.10
2022-08-04T20:40:33.335Z,26.10
2022-08-04T20:43:06.443Z,26.00
2022-08-04T20:45:56.562Z,26.00
2022-08-04T20:48:33.811Z,26.00
2022-08-04T20:51:07.642Z,25.90
2022-08-04T20:53:53.028Z,25.80
2022-08-04T20:56:31.013Z,25.80
2022-08-04T21:01:58.353Z,25.70
2022-08-04T21:04:35.655Z,25.60
2022-08-04T21:07:10.880Z,25.60
2022-08-04T21:09:51.194Z,25.50
2022-08-04T21:12:28.586Z,25.50
2022-08-04T21:15:13.904Z,25.40
2022-08-04T21:17:59.454Z,25.30
2022-08-04T21:20:42.710Z,25.30
2022-08-04T21:23:16.735Z,25.20
2022-08-04T21:25:58.074Z,25.10
2022-08-04T21:28:31.792Z,25.10
2022-08-04T21:31:11.070Z,25.00
2022-08-04T21:33:54.799Z,24.90
2022-08-04T21:36:29.412Z,24.90
2022-08-04T21:39:04.309Z,24.80
2022-08-04T21:42:19.718Z,24.80
2022-08-04T21:44:37.251Z,24.70
2022-08-04T21:50:04.643Z,24.60
2022-08-04T21:52:39.175Z,24.60
2022-08-04T21:55:12.821Z,24.50
2022-08-04T21:57:45.944Z,24.50
2022-08-04T22:00:22.936Z,24.40
2022-08-04T22:02:57.947Z,24.30
2022-08-04T22:05:32.827Z,24.30
2022-08-04T22:08:07.577Z,24.20
2022-08-04T22:10:53.486Z,24.20
2022-08-04T22:13:52.651Z,24.10
2022-08-04T22:16:19.639Z,24.10
2022-08-04T22:18:56.557Z,24.10
2022-08-04T22:24:30.017Z,23.90
2022-08-04T22:27:03.185Z,23.90
2022-08-04T22:29:44.888Z,23.90
2022-08-04T22:32:18.194Z,23.90
2022-08-04T22:34:53.959Z,23.80
2022-08-04T22:37:36.229Z,23.80
2022-08-04T22:40:19.469Z,23.80
2022-08-04T22:42:52.614Z,23.80
2022-08-04T22:45:28.802Z,23.70
2022-08-04T22:48:17.282Z,23.60
2022-08-04T22:50:51.303Z,23.60
2022-08-04T22:53:24.439Z,23.60
2022-08-04T22:56:09.613Z,23.50
2022-08-04T22:58:51.066Z,23.40
2022-08-04T23:01:24.749Z,23.40
2022-08-04T23:04:06.419Z,23.40
2022-08-04T23:06:41.504Z,23.20
2022-08-04T23:09:16.128Z,23.10
2022-08-04T23:12:08.595Z,23.20
2022-08-04T23:14:46.146Z,23.00
2022-08-04T23:17:20.249Z,23.00
2022-08-04T23:19:57.310Z,22.90
2022-08-04T23:22:41.003Z,22.90
2022-08-04T23:25:17.060Z,22.90
2022-08-04T23:27:52.199Z,22.80
2022-08-04T23:30:29.921Z,22.80
2022-08-04T23:33:05.160Z,22.80
2022-08-04T23:35:38.480Z,22.80
2022-08-04T23:38:31.714Z,22.80
2022-08-04T23:41:08.642Z,22.70
2022-08-04T23:43:55.246Z,22.70
2022-08-04T23:46:28.814Z,22.60
2022-08-04T23:49:01.974Z,22.60
2022-08-04T23:51:35.218Z,22.60
2022-08-04T23:54:09.095Z,22.50
2022-08-04T23:56:42.250Z,22.40
2022-08-04T23:59:51.940Z,22.40
